Time;durP1;ratioP1;P1;durP2;ratioP2;P2;SDS_P1;SDS_P2;PMS_P1;PMS_P2;Temp;Humidity;BMP_temperature;BMP_pressure;BME280_temperature;BME280_humidity;BME280_pressure;Samples;Min_cycle;Max_cycle;Signal;HPM_P1;HPM_P2
2023/08/17 00:02:14;;;;;;;12.70;11.80;;;22.40;48.00;;;;;;5137234;27;20184;-58
2023/08/17 00:04:40;;;;;;;12.40;11.60;;;22.40;48.20;;;;;;5137220;27;20180;-57
2023/08/17 00:07:06;;;;;;;13.00;12.40;;;22.40;48.20;;;;;;5137181;27;20901;-60
2023/08/17 00:09:32;;;;;;;14.13;13.13;;;22.40;48.20;;;;;;5136853;27;20429;-58
2023/08/17 00:11:58;;;;;;;13.33;12.33;;;22.40;48.20;;;;;;5136976;27;20464;-59
2023/08/17 00:14:24;;;;;;;14.23;13.33;;;22.40;48.10;;;;;;5137074;27;20414;-61
2023/08/17 00:16:50;;;;;;;13.10;12.33;;;22.40;48.50;;;;;;5136991;27;20644;-60
2023/08/17 00:19:16;;;;;;;14.80;13.80;;;22.30;48.70;;;;;;5136785;27;20268;-60
2023/08/17 00:21:41;;;;;;;13.50;12.60;;;22.20;49.40;;;;;;5136961;27;20438;-59
2023/08/17 00:24:07;;;;;;;12.80;12.10;;;22.10;50.30;;;;;;5136893;27;20643;-59
2023/08/17 00:26:33;;;;;;;13.73;12.73;;;22.00;50.50;;;;;;5136695;27;20176;-60
2023/08/17 00:28:58;;;;;;;13.53;12.30;;;22.10;50.30;;;;;;5136630;27;20211;-60
2023/08/17 00:31:24;;;;;;;12.77;11.90;;;22.10;50.10;;;;;;5136617;27;20200;-60
2023/08/17 00:33:49;;;;;;;12.57;11.67;;;22.10;49.80;;;;;;5136806;27;20173;-60
2023/08/17 00:36:15;;;;;;;13.53;12.73;;;22.10;51.10;;;;;;5136736;27;20191;-60
2023/08/17 00:38:41;;;;;;;12.20;11.57;;;22.00;51.10;;;;;;5136412;27;20177;-60
2023/08/17 00:41:06;;;;;;;11.97;11.27;;;22.00;50.60;;;;;;5136689;27;20181;-60
2023/08/17 00:43:32;;;;;;;12.53;11.83;;;22.10;50.70;;;;;;5136521;27;20172;-60
2023/08/17 00:45:58;;;;;;;12.23;11.53;;;22.20;50.20;;;;;;5136441;27;20176;-60
2023/08/17 00:48:24;;;;;;;12.40;11.80;;;22.20;49.70;;;;;;5136210;27;20570;-60
2023/08/17 00:50:52;;;;;;;12.47;11.87;;;22.20;49.50;;;;;;5136335;27;20525;-60
2023/08/17 00:53:18;;;;;;;12.17;11.40;;;22.20;49.20;;;;;;5136285;27;20902;-60
2023/08/17 00:55:44;;;;;;;11.93;11.33;;;22.20;49.00;;;;;;5136253;27;20414;-60
2023/08/17 00:58:10;;;;;;;12.40;11.60;;;22.20;48.60;;;;;;5136056;27;20410;-59
2023/08/17 01:00:36;;;;;;;12.60;11.90;;;22.30;49.00;;;;;;5136304;27;20496;-59
2023/08/17 01:03:01;;;;;;;12.63;11.93;;;22.20;49.00;;;;;;5136478;27;20267;-60
2023/08/17 01:05:27;;;;;;;12.00;11.30;;;22.30;48.70;;;;;;5136656;27;20910;-60
2023/08/17 01:07:53;;;;;;;12.10;11.40;;;22.30;48.60;;;;;;5135999;27;20180;-60
2023/08/17 01:10:18;;;;;;;12.77;11.97;;;22.30;48.60;;;;;;5135956;27;20188;-60
2023/08/17 01:12:54;;;;;;;12.30;11.40;;;22.20;48.60;;;;;;5136001;27;20303;-60
2023/08/17 01:15:50;;;;;;;12.53;11.57;;;22.30;48.40;;;;;;5135919;27;20182;-60
2023/08/17 01:18:26;;;;;;;13.30;12.40;;;22.20;48.50;;;;;;5134004;27;20920;-61
2023/08/17 01:20:53;;;;;;;12.40;11.70;;;22.20;48.70;;;;;;5136063;27;21038;-58
2023/08/17 01:23:19;;;;;;;12.33;11.47;;;22.30;49.10;;;;;;5135969;27;20510;-58
2023/08/17 01:25:45;;;;;;;13.57;12.73;;;22.30;49.10;;;;;;5135757;27;20949;-58
2023/08/17 01:28:10;;;;;;;12.67;11.80;;;22.20;48.80;;;;;;5154082;27;20176;-58
2023/08/17 01:31:08;;;;;;;12.30;11.60;;;22.30;48.60;;;;;;5135684;27;20180;-58
2023/08/17 01:34:01;;;;;;;12.10;11.30;;;22.30;48.40;;;;;;5128095;27;20540;-59
2023/08/17 01:36:31;;;;;;;12.13;11.43;;;22.20;48.20;;;;;;5135601;27;20789;-59
2023/08/17 01:38:59;;;;;;;12.83;12.03;;;22.20;48.20;;;;;;5135415;27;20402;-59
2023/08/17 01:41:26;;;;;;;12.30;11.50;;;22.20;48.40;;;;;;5135408;27;20940;-60
2023/08/17 01:43:53;;;;;;;12.07;11.13;;;22.20;48.50;;;;;;5154023;27;20799;-60
2023/08/17 01:46:19;;;;;;;12.07;11.33;;;22.20;48.30;;;;;;5135398;27;20394;-60
2023/08/17 01:48:45;;;;;;;11.87;11.17;;;22.20;48.20;;;;;;5135127;27;20508;-60
2023/08/17 01:51:16;;;;;;;11.80;11.00;;;22.20;48.30;;;;;;5135213;27;20290;-60
2023/08/17 01:53:42;;;;;;;12.40;11.60;;;22.20;48.50;;;;;;5135348;27;20406;-60
2023/08/17 01:56:07;;;;;;;12.03;11.20;;;22.20;48.60;;;;;;5135394;27;20497;-60
2023/08/17 01:58:33;;;;;;;13.57;12.63;;;22.20;49.40;;;;;;5134503;27;20259;-59
2023/08/17 02:00:59;;;;;;;12.30;11.60;;;22.20;49.00;;;;;;5135188;27;20213;-60
2023/08/17 02:03:24;;;;;;;14.60;13.50;;;22.20;49.00;;;;;;5135195;27;20195;-59
2023/08/17 02:05:50;;;;;;;13.43;12.63;;;22.20;48.80;;;;;;5135276;27;20175;-60
2023/08/17 02:08:15;;;;;;;16.33;15.33;;;22.20;48.90;;;;;;5134890;27;20632;-60
2023/08/17 02:10:41;;;;;;;15.70;14.47;;;22.20;49.40;;;;;;5135251;27;20173;-59
2023/08/17 02:13:06;;;;;;;14.93;14.03;;;22.20;49.60;;;;;;5135093;27;20177;-59
2023/08/17 02:15:32;;;;;;;14.77;13.77;;;22.20;50.00;;;;;;5134977;27;20259;-58
2023/08/17 02:18:01;;;;;;;15.37;14.27;;;22.10;50.20;;;;;;5134840;27;20168;-58
2023/08/17 02:20:27;;;;;;;16.10;15.00;;;22.10;50.40;;;;;;5134969;27;20165;-59
2023/08/17 02:22:52;;;;;;;16.20;15.00;;;22.10;50.30;;;;;;5134993;27;20463;-60
2023/08/17 02:25:18;;;;;;;17.60;16.30;;;22.10;50.40;;;;;;5134996;27;20169;-59
2023/08/17 02:27:43;;;;;;;16.60;15.40;;;22.10;51.20;;;;;;5134944;27;20183;-60
2023/08/17 02:30:10;;;;;;;17.00;15.80;;;22.10;50.40;;;;;;5134746;27;20252;-60
2023/08/17 02:32:35;;;;;;;16.10;15.00;;;22.10;50.40;;;;;;5134904;27;20215;-60
2023/08/17 02:35:01;;;;;;;15.53;14.30;;;22.20;50.60;;;;;;5134838;27;20409;-59
2023/08/17 02:37:27;;;;;;;17.27;15.87;;;22.10;50.40;;;;;;5134774;27;20576;-59
2023/08/17 02:39:52;;;;;;;16.33;15.13;;;22.20;50.30;;;;;;5134759;27;20223;-59
2023/08/17 02:42:18;;;;;;;15.53;14.43;;;22.10;50.00;;;;;;5134760;27;20214;-59
2023/08/17 02:44:44;;;;;;;16.20;14.90;;;22.10;50.40;;;;;;5134742;27;20173;-59
2023/08/17 02:47:10;;;;;;;17.23;15.77;;;22.10;50.50;;;;;;5134885;27;20168;-59
2023/08/17 02:49:35;;;;;;;17.43;16.17;;;22.10;50.20;;;;;;5134335;27;20209;-60
2023/08/17 02:52:01;;;;;;;16.70;15.60;;;22.10;50.00;;;;;;5134714;27;20481;-60
2023/08/17 02:54:26;;;;;;;18.13;16.63;;;22.10;50.00;;;;;;5134724;27;20183;-60
2023/08/17 02:56:52;;;;;;;17.23;16.00;;;22.10;50.10;;;;;;5134732;27;20245;-60
2023/08/17 02:59:18;;;;;;;17.40;16.20;;;22.10;50.10;;;;;;5134405;27;20165;-59
2023/08/17 03:01:45;;;;;;;16.70;15.37;;;22.10;50.40;;;;;;5134579;27;20196;-59
2023/08/17 03:04:11;;;;;;;15.43;14.33;;;22.10;50.20;;;;;;5134580;27;20212;-59
2023/08/17 03:06:36;;;;;;;15.40;14.30;;;22.10;50.40;;;;;;5134587;27;20881;-59
2023/08/17 03:09:02;;;;;;;16.03;14.80;;;22.10;50.40;;;;;;5134352;27;20176;-59
2023/08/17 03:11:28;;;;;;;16.20;15.00;;;22.10;50.50;;;;;;5136715;27;20221;-59
2023/08/17 03:13:59;;;;;;;14.93;13.83;;;22.10;50.30;;;;;;5138288;27;20173;-59
2023/08/17 03:16:25;;;;;;;15.20;14.10;;;22.10;50.30;;;;;;5138229;27;20199;-59
2023/08/17 03:18:51;;;;;;;15.97;14.97;;;22.10;50.30;;;;;;5137838;27;20410;-59
2023/08/17 03:21:18;;;;;;;16.23;15.13;;;22.10;50.30;;;;;;5138497;27;20417;-60
2023/08/17 03:23:44;;;;;;;17.10;15.47;;;22.10;50.20;;;;;;5138500;27;20176;-58
2023/08/17 03:26:09;;;;;;;16.70;15.30;;;21.90;51.70;;;;;;5138431;27;20487;-58
2023/08/17 03:28:35;;;;;;;16.90;15.60;;;21.80;52.00;;;;;;5156733;27;20172;-58
2023/08/17 03:31:01;;;;;;;17.40;15.67;;;21.70;52.60;;;;;;5120902;27;20636;-58
2023/08/17 03:33:27;;;;;;;17.87;16.57;;;21.70;52.90;;;;;;5137787;27;20172;-58
2023/08/17 03:35:53;;;;;;;18.43;17.07;;;21.60;53.20;;;;;;5137870;27;20417;-58
2023/08/17 03:38:19;;;;;;;17.23;15.90;;;21.50;53.60;;;;;;5156385;27;20251;-58
2023/08/17 03:40:44;;;;;;;18.20;16.70;;;21.40;53.90;;;;;;5132915;27;20384;-58
2023/08/17 03:43:10;;;;;;;17.97;16.67;;;21.40;54.30;;;;;;5135783;27;20475;-58
2023/08/17 03:45:36;;;;;;;18.20;16.77;;;21.30;54.80;;;;;;5137019;27;20221;-58
2023/08/17 03:48:01;;;;;;;16.70;15.50;;;21.20;55.50;;;;;;5155119;27;20489;-58
2023/08/17 03:50:28;;;;;;;19.07;17.47;;;21.20;55.60;;;;;;5137515;27;20538;-58
2023/08/17 03:52:54;;;;;;;17.10;15.90;;;21.20;55.20;;;;;;5137590;27;20204;-58
2023/08/17 03:55:19;;;;;;;17.97;16.37;;;21.30;55.40;;;;;;5137342;27;20406;-58
2023/08/17 03:57:45;;;;;;;17.33;16.23;;;21.20;54.80;;;;;;5137351;27;20173;-58
2023/08/17 04:00:11;;;;;;;18.63;17.10;;;21.20;55.00;;;;;;5137229;27;20238;-58
2023/08/17 04:02:37;;;;;;;18.13;16.87;;;21.20;55.40;;;;;;5137199;27;20177;-58
2023/08/17 04:05:03;;;;;;;16.50;15.40;;;21.20;55.30;;;;;;5137155;27;20418;-58
2023/08/17 04:07:28;;;;;;;18.03;16.40;;;21.30;55.10;;;;;;5155413;27;20742;-58
2023/08/17 04:09:54;;;;;;;16.97;15.83;;;21.30;54.90;;;;;;5136990;27;20428;-58
2023/08/17 04:12:20;;;;;;;17.47;16.27;;;21.30;55.10;;;;;;5137361;27;20200;-58
2023/08/17 04:14:45;;;;;;;17.67;16.47;;;21.30;55.40;;;;;;5137324;27;20215;-58
2023/08/17 04:17:11;;;;;;;17.50;16.00;;;21.30;55.40;;;;;;5137182;27;20229;-58
2023/08/17 04:19:37;;;;;;;18.60;17.10;;;21.20;55.60;;;;;;5137146;27;20176;-58
2023/08/17 04:22:03;;;;;;;17.27;15.93;;;21.20;55.90;;;;;;5137156;27;20560;-58
2023/08/17 04:24:28;;;;;;;17.30;15.97;;;21.20;55.60;;;;;;5137170;27;20224;-58
2023/08/17 04:26:54;;;;;;;18.30;16.90;;;21.20;55.40;;;;;;5137385;27;20426;-58
2023/08/17 04:29:20;;;;;;;18.27;16.87;;;21.20;55.50;;;;;;5136881;27;20179;-58
2023/08/17 04:31:46;;;;;;;17.87;16.57;;;21.30;55.90;;;;;;5137405;27;20457;-58
2023/08/17 04:34:11;;;;;;;17.70;16.30;;;21.30;54.80;;;;;;5137274;27;20749;-58
2023/08/17 04:36:37;;;;;;;19.47;17.87;;;21.30;54.80;;;;;;5137022;27;20531;-58
2023/08/17 04:39:04;;;;;;;18.50;17.20;;;21.20;54.70;;;;;;5136851;27;20316;-58
2023/08/17 04:41:30;;;;;;;18.73;17.33;;;21.20;55.30;;;;;;5137069;27;20641;-58
2023/08/17 04:43:56;;;;;;;19.57;18.17;;;21.20;55.60;;;;;;5136834;27;20410;-58
2023/08/17 04:46:21;;;;;;;18.27;17.07;;;21.30;55.00;;;;;;5136703;27;20500;-58
2023/08/17 04:48:47;;;;;;;19.10;17.70;;;21.40;54.30;;;;;;5136340;27;20233;-58
2023/08/17 04:51:14;;;;;;;17.93;16.63;;;21.50;53.50;;;;;;5136201;27;20212;-58
2023/08/17 04:53:40;;;;;;;18.33;17.03;;;21.60;52.80;;;;;;5136448;27;20168;-58
2023/08/17 04:56:05;;;;;;;17.93;16.80;;;21.70;52.00;;;;;;5136580;27;20467;-58
2023/08/17 04:58:31;;;;;;;20.20;18.70;;;21.70;51.90;;;;;;5136208;27;20180;-57
2023/08/17 05:00:58;;;;;;;19.27;17.87;;;21.70;51.90;;;;;;5136457;27;20169;-57
2023/08/17 05:03:24;;;;;;;22.57;20.97;;;21.60;51.80;;;;;;5135283;27;20411;-57
2023/08/17 05:05:51;;;;;;;19.80;18.50;;;21.60;52.70;;;;;;5134230;27;20410;-57
2023/08/17 05:08:17;;;;;;;21.23;19.77;;;21.60;52.50;;;;;;5134098;27;20221;-57
2023/08/17 05:10:42;;;;;;;21.93;20.03;;;21.70;51.90;;;;;;5133716;27;20418;-58
2023/08/17 05:13:08;;;;;;;22.30;20.60;;;21.70;51.90;;;;;;5127151;27;20216;-57
2023/08/17 05:15:33;;;;;;;21.23;19.63;;;21.70;51.90;;;;;;5134533;27;20191;-57
2023/08/17 05:17:59;;;;;;;22.30;20.50;;;21.60;51.90;;;;;;5129549;27;20279;-57
2023/08/17 05:20:25;;;;;;;20.57;19.10;;;21.70;51.90;;;;;;5132891;27;20183;-58
2023/08/17 05:22:51;;;;;;;22.60;20.63;;;21.70;51.90;;;;;;5135359;27;20208;-57
2023/08/17 05:25:16;;;;;;;21.43;19.80;;;21.70;51.50;;;;;;5135541;27;20654;-57
2023/08/17 05:27:42;;;;;;;21.00;19.50;;;21.70;51.90;;;;;;5133530;27;20181;-58
2023/08/17 05:30:08;;;;;;;20.37;18.90;;;21.70;51.90;;;;;;5134918;27;20205;-58
2023/08/17 05:32:33;;;;;;;21.80;19.97;;;21.70;51.90;;;;;;5135182;27;20235;-57
2023/08/17 05:34:59;;;;;;;21.37;19.77;;;21.80;51.70;;;;;;5134946;27;20410;-57
2023/08/17 05:37:25;;;;;;;21.50;20.10;;;21.90;51.50;;;;;;5134773;27;20176;-57
2023/08/17 05:39:50;;;;;;;22.57;20.80;;;21.90;50.70;;;;;;5134696;27;20180;-57
2023/08/17 05:42:16;;;;;;;23.00;21.30;;;21.70;51.50;;;;;;5134901;27;20185;-58
2023/08/17 05:44:41;;;;;;;21.90;20.17;;;21.70;51.90;;;;;;5135430;27;20644;-57
2023/08/17 05:47:07;;;;;;;22.33;20.67;;;21.50;52.40;;;;;;5135368;27;20185;-57
2023/08/17 05:49:33;;;;;;;22.90;21.30;;;21.50;53.20;;;;;;5134907;27;20275;-57
2023/08/17 05:51:58;;;;;;;23.23;21.37;;;21.40;53.70;;;;;;5153807;27;20705;-57
2023/08/17 05:54:25;;;;;;;20.53;18.93;;;21.30;54.20;;;;;;5118287;27;20295;-58
2023/08/17 05:56:50;;;;;;;20.40;19.00;;;21.40;54.80;;;;;;5153851;27;20489;-57
2023/08/17 05:59:16;;;;;;;21.93;20.10;;;21.30;54.90;;;;;;5134494;27;20180;-57
2023/08/17 06:01:42;;;;;;;22.37;20.67;;;21.30;54.90;;;;;;5134426;27;20259;-57
2023/08/17 06:04:07;;;;;;;21.30;19.80;;;21.40;54.80;;;;;;5134813;27;20181;-57
2023/08/17 06:06:33;;;;;;;21.03;19.43;;;21.40;54.80;;;;;;5135128;27;20273;-57
2023/08/17 06:08:59;;;;;;;23.03;20.77;;;21.40;54.80;;;;;;5153636;27;20235;-57
2023/08/17 06:11:25;;;;;;;21.57;19.87;;;21.30;54.80;;;;;;5154911;27;20449;-57
2023/08/17 06:13:50;;;;;;;22.83;20.83;;;21.40;54.80;;;;;;5155594;27;20266;-56
2023/08/17 06:16:16;;;;;;;21.00;19.40;;;21.40;54.40;;;;;;5155694;27;20258;-56
2023/08/17 06:18:42;;;;;;;20.83;19.13;;;21.50;54.40;;;;;;5155509;27;20176;-56
2023/08/17 06:21:08;;;;;;;21.43;19.83;;;21.60;53.90;;;;;;5155738;27;20179;-56
2023/08/17 06:23:34;;;;;;;23.90;21.63;;;21.50;53.20;;;;;;5155603;27;20267;-56
2023/08/17 06:25:59;;;;;;;22.10;20.17;;;21.50;53.80;;;;;;5155743;27;20508;-57
2023/08/17 06:28:26;;;;;;;21.50;19.80;;;21.50;54.20;;;;;;5155412;27;20682;-56
2023/08/17 06:30:53;;;;;;;22.53;20.80;;;21.60;54.30;;;;;;5174289;27;20504;-57
2023/08/17 06:33:19;;;;;;;21.90;20.07;;;21.60;53.50;;;;;;5155608;27;20776;-57
2023/08/17 06:35:45;;;;;;;22.80;21.10;;;21.70;53.40;;;;;;5155618;27;20467;-58
2023/08/17 06:38:10;;;;;;;21.70;19.97;;;21.60;52.30;;;;;;5155439;27;20417;-57
2023/08/17 06:40:36;;;;;;;21.23;19.83;;;21.60;52.70;;;;;;5155577;27;20183;-58
2023/08/17 06:43:01;;;;;;;19.70;18.37;;;21.60;52.60;;;;;;5155624;27;20180;-57
2023/08/17 06:45:27;;;;;;;20.67;19.27;;;21.70;52.90;;;;;;5158081;27;20540;-58
2023/08/17 06:47:53;;;;;;;20.87;19.40;;;21.80;52.30;;;;;;5159551;27;20219;-57
2023/08/17 06:50:19;;;;;;;22.17;20.57;;;21.90;52.10;;;;;;5159289;27;20191;-57
2023/08/17 06:52:44;;;;;;;20.90;19.20;;;22.00;51.00;;;;;;5159334;27;20215;-56
2023/08/17 06:55:10;;;;;;;20.03;18.73;;;22.00;50.50;;;;;;5159452;27;20174;-56
2023/08/17 06:57:36;;;;;;;21.70;19.90;;;22.10;50.00;;;;;;5159238;27;20175;-58
2023/08/17 07:00:05;;;;;;;19.10;17.83;;;22.10;49.50;;;;;;5159298;27;20172;-57
2023/08/17 07:02:30;;;;;;;20.80;18.83;;;22.10;49.20;;;;;;5159230;27;20207;-57
2023/08/17 07:04:56;;;;;;;20.30;18.97;;;22.20;49.10;;;;;;5159152;27;20912;-57
2023/08/17 07:07:21;;;;;;;22.17;20.57;;;22.20;49.30;;;;;;5159177;27;20270;-57
2023/08/17 07:09:47;;;;;;;21.87;19.93;;;22.20;48.40;;;;;;5158998;27;20202;-57
2023/08/17 07:12:13;;;;;;;21.73;20.00;;;22.20;48.30;;;;;;5159088;27;20227;-56
2023/08/17 07:14:38;;;;;;;21.20;19.80;;;22.20;48.40;;;;;;5159187;27;20186;-57
2023/08/17 07:17:04;;;;;;;21.53;19.80;;;22.30;48.50;;;;;;5177983;27;20515;-57
2023/08/17 07:19:29;;;;;;;20.00;18.60;;;22.30;48.50;;;;;;5159095;27;20175;-57
2023/08/17 07:21:55;;;;;;;21.10;19.60;;;22.40;48.00;;;;;;5159497;27;20263;-57
2023/08/17 07:24:21;;;;;;;20.67;19.40;;;22.40;47.80;;;;;;5158920;27;20218;-57
2023/08/17 07:26:46;;;;;;;20.43;19.17;;;22.50;47.80;;;;;;5158885;27;20190;-58
2023/08/17 07:29:12;;;;;;;20.73;19.30;;;22.50;47.70;;;;;;5158688;27;20221;-58
2023/08/17 07:31:40;;;;;;;21.67;20.27;;;22.50;47.20;;;;;;5177351;27;20231;-58
2023/08/17 07:34:06;;;;;;;21.77;20.17;;;22.50;47.00;;;;;;5158820;27;20266;-58
2023/08/17 07:36:33;;;;;;;20.10;18.90;;;22.50;46.80;;;;;;5158755;27;20405;-58
2023/08/17 07:38:59;;;;;;;20.83;19.53;;;22.50;46.70;;;;;;5158475;27;20414;-58
2023/08/17 07:41:25;;;;;;;21.73;20.20;;;22.50;47.10;;;;;;5177169;27;20401;-58
2023/08/17 07:43:51;;;;;;;22.50;21.00;;;22.50;46.90;;;;;;5158533;27;20409;-58
2023/08/17 07:46:17;;;;;;;21.87;20.47;;;22.60;46.90;;;;;;5158500;27;20768;-58
2023/08/17 07:48:42;;;;;;;21.77;20.17;;;22.60;46.80;;;;;;5176884;27;20315;-58
2023/08/17 07:51:08;;;;;;;21.70;20.00;;;22.70;46.50;;;;;;5158290;27;20195;-58
2023/08/17 07:53:34;;;;;;;20.40;19.00;;;22.70;46.40;;;;;;5158283;27;20198;-58
2023/08/17 07:56:00;;;;;;;22.00;20.53;;;22.70;46.40;;;;;;5159606;27;20417;-58
2023/08/17 07:58:25;;;;;;;22.80;21.20;;;22.80;46.10;;;;;;5158431;27;20262;-58
2023/08/17 08:00:51;;;;;;;21.60;20.10;;;22.80;46.10;;;;;;5158474;27;20164;-58
2023/08/17 08:03:17;;;;;;;20.23;18.87;;;22.90;45.80;;;;;;5159821;27;20187;-58
2023/08/17 08:05:42;;;;;;;22.23;20.63;;;22.90;45.60;;;;;;5177839;27;20210;-59
2023/08/17 08:08:08;;;;;;;21.07;19.50;;;22.90;45.50;;;;;;5177718;27;20923;-59
2023/08/17 08:10:34;;;;;;;23.63;21.93;;;23.00;44.90;;;;;;5158073;27;20218;-59
2023/08/17 08:12:59;;;;;;;22.67;20.93;;;22.90;44.00;;;;;;5176800;27;20200;-58
2023/08/17 08:15:25;;;;;;;22.20;20.80;;;22.90;44.40;;;;;;5158000;27;20694;-59
2023/08/17 08:17:51;;;;;;;21.90;20.60;;;23.00;44.70;;;;;;5157706;27;20191;-59
2023/08/17 08:20:17;;;;;;;22.10;20.90;;;23.00;43.70;;;;;;5158940;27;20631;-59
2023/08/17 08:22:42;;;;;;;24.93;23.10;;;23.10;43.40;;;;;;5157914;27;20179;-58
2023/08/17 08:25:08;;;;;;;21.90;20.30;;;23.10;43.10;;;;;;5157982;27;20413;-59
2023/08/17 08:27:34;;;;;;;21.90;20.47;;;23.10;43.90;;;;;;5140392;27;20179;-59
2023/08/17 08:29:59;;;;;;;21.03;19.70;;;23.10;43.50;;;;;;5157643;27;20184;-58
2023/08/17 08:32:25;;;;;;;21.50;19.53;;;23.10;43.80;;;;;;5157747;27;20199;-58
2023/08/17 08:34:50;;;;;;;20.73;19.40;;;23.20;44.00;;;;;;5157663;27;20275;-58
2023/08/17 08:37:16;;;;;;;21.77;20.27;;;23.30;43.90;;;;;;5157553;27;20179;-58
2023/08/17 08:39:53;;;;;;;22.10;20.40;;;23.30;43.20;;;;;;5157402;27;20203;-58
2023/08/17 08:42:19;;;;;;;21.50;19.90;;;23.40;43.30;;;;;;5157672;27;20184;-58
2023/08/17 08:44:45;;;;;;;22.33;20.67;;;23.40;42.90;;;;;;5157707;27;20469;-58
2023/08/17 08:47:12;;;;;;;21.60;20.13;;;23.40;42.40;;;;;;5157324;27;20409;-58
2023/08/17 08:49:40;;;;;;;20.53;19.03;;;23.50;42.10;;;;;;5156788;27;20517;-58
2023/08/17 08:52:08;;;;;;;19.07;17.87;;;23.60;42.30;;;;;;5157324;27;20468;-58
2023/08/17 08:54:37;;;;;;;19.90;18.70;;;23.60;41.70;;;;;;5157138;27;20417;-58
2023/08/17 08:57:08;;;;;;;19.90;18.70;;;23.80;41.30;;;;;;5157164;27;20408;-57
2023/08/17 08:59:35;;;;;;;18.77;17.57;;;24.00;40.50;;;;;;5175494;27;20409;-57
2023/08/17 09:02:01;;;;;;;19.33;18.13;;;24.10;39.10;;;;;;5157018;27;20755;-58
2023/08/17 09:04:28;;;;;;;17.67;16.50;;;24.10;38.80;;;;;;5156801;27;20420;-58
2023/08/17 09:06:55;;;;;;;17.10;16.00;;;24.20;38.80;;;;;;5156996;27;20180;-58
2023/08/17 09:09:21;;;;;;;17.43;16.37;;;24.20;39.10;;;;;;5155585;27;20801;-58
2023/08/17 09:11:47;;;;;;;19.07;17.67;;;24.20;39.10;;;;;;5156777;27;20467;-58
2023/08/17 09:14:12;;;;;;;18.37;17.17;;;24.30;38.50;;;;;;5157007;27;20904;-58
2023/08/17 09:16:39;;;;;;;18.67;17.57;;;24.40;38.60;;;;;;5156613;27;20231;-58
2023/08/17 09:19:06;;;;;;;17.90;16.50;;;24.50;38.70;;;;;;5156724;27;20172;-58
2023/08/17 09:21:35;;;;;;;17.43;16.33;;;24.50;38.10;;;;;;5175907;27;20448;-58
2023/08/17 09:24:01;;;;;;;18.23;17.13;;;24.50;38.10;;;;;;5157309;27;20783;-58
2023/08/17 09:26:32;;;;;;;18.60;17.50;;;24.50;37.30;;;;;;5157093;27;20424;-58
2023/08/17 09:28:58;;;;;;;18.60;17.47;;;24.50;37.10;;;;;;5156941;27;20263;-58
2023/08/17 09:31:24;;;;;;;17.63;16.53;;;24.50;37.00;;;;;;5148176;27;20459;-58
2023/08/17 09:33:51;;;;;;;17.47;16.47;;;24.60;37.10;;;;;;5115080;27;20482;-58
2023/08/17 09:36:25;;;;;;;18.50;17.30;;;24.80;36.70;;;;;;5114946;27;20418;-58
2023/08/17 09:38:51;;;;;;;17.80;16.60;;;25.20;34.80;;;;;;5133150;27;20424;-59
2023/08/17 09:41:20;;;;;;;20.33;18.97;;;25.40;33.80;;;;;;5155092;27;20401;-57
2023/08/17 09:43:48;;;;;;;15.67;14.67;;;25.60;32.50;;;;;;5157777;27;20168;-58
2023/08/17 09:46:14;;;;;;;16.70;15.70;;;25.70;32.10;;;;;;5159873;27;20476;-58
2023/08/17 09:48:42;;;;;;;16.77;15.83;;;26.10;30.50;;;;;;5156333;27;20473;-57
2023/08/17 09:51:08;;;;;;;17.23;15.93;;;26.20;30.70;;;;;;5156282;27;20485;-58
2023/08/17 09:53:37;;;;;;;16.57;15.60;;;26.30;30.50;;;;;;5156394;27;20413;-57
2023/08/17 09:56:04;;;;;;;18.13;16.87;;;26.20;30.30;;;;;;5156889;27;20167;-57
2023/08/17 09:58:30;;;;;;;17.33;16.03;;;26.20;29.90;;;;;;5156220;27;20950;-57
2023/08/17 10:00:58;;;;;;;17.10;15.97;;;26.30;29.90;;;;;;5175107;27;20409;-58
2023/08/17 10:03:27;;;;;;;17.67;16.20;;;26.20;29.90;;;;;;5175179;27;20170;-57
2023/08/17 10:05:59;;;;;;;17.10;16.00;;;26.20;30.10;;;;;;5174993;27;20401;-58
2023/08/17 10:08:27;;;;;;;17.90;16.50;;;26.10;30.60;;;;;;5174887;27;20415;-58
2023/08/17 10:10:56;;;;;;;17.63;16.17;;;26.00;30.20;;;;;;5174813;27;20405;-58
2023/08/17 10:13:28;;;;;;;15.63;14.63;;;26.00;30.80;;;;;;5155843;27;20457;-59
2023/08/17 10:15:59;;;;;;;15.83;14.53;;;26.00;31.30;;;;;;5174862;27;20401;-58
2023/08/17 10:18:58;;;;;;;18.00;16.40;;;26.00;31.80;;;;;;5155831;27;20437;-59
2023/08/17 10:21:50;;;;;;;15.57;14.67;;;26.10;31.60;;;;;;5178956;27;20408;-59
2023/08/17 10:24:17;;;;;;;16.27;14.97;;;26.10;31.90;;;;;;5179126;27;20461;-59
2023/08/17 10:26:44;;;;;;;17.60;15.93;;;26.10;31.80;;;;;;5160167;27;20417;-58
2023/08/17 10:29:10;;;;;;;17.63;16.13;;;26.30;31.60;;;;;;5160235;27;20417;-59
2023/08/17 10:31:38;;;;;;;16.70;15.67;;;26.40;29.50;;;;;;5159973;27;20932;-58
2023/08/17 10:34:04;;;;;;;16.27;14.97;;;26.50;29.30;;;;;;5160179;27;20469;-58
2023/08/17 10:36:32;;;;;;;17.20;16.10;;;26.60;30.00;;;;;;5159956;27;20421;-58
2023/08/17 10:39:23;;;;;;;17.30;16.00;;;26.60;29.80;;;;;;5159259;27;20461;-58
2023/08/17 10:41:51;;;;;;;17.33;16.20;;;26.70;29.30;;;;;;5159746;27;20409;-58
2023/08/17 10:44:37;;;;;;;15.93;15.00;;;26.70;28.90;;;;;;5178307;27;20957;-58
2023/08/17 10:47:25;;;;;;;16.57;15.40;;;26.80;28.80;;;;;;5159557;27;20408;-58
2023/08/17 10:49:56;;;;;;;17.20;16.10;;;26.80;28.70;;;;;;5159343;27;20429;-58
2023/08/17 10:52:30;;;;;;;16.70;15.50;;;26.90;28.00;;;;;;5159594;27;20474;-58
2023/08/17 10:54:56;;;;;;;15.60;14.50;;;26.90;28.20;;;;;;5159594;27;20524;-58
2023/08/17 10:57:30;;;;;;;16.17;14.87;;;26.90;28.30;;;;;;5159319;27;20984;-58
2023/08/17 11:00:29;;;;;;;15.90;14.90;;;26.90;27.60;;;;;;5159424;27;20197;-58
2023/08/17 11:03:05;;;;;;;16.90;15.80;;;26.90;27.40;;;;;;5144235;27;20920;-58
2023/08/17 11:05:42;;;;;;;16.40;15.20;;;27.00;27.00;;;;;;5159339;27;20408;-58
2023/08/17 11:08:19;;;;;;;17.40;16.30;;;27.10;26.60;;;;;;5159122;27;20792;-58
2023/08/17 11:11:26;;;;;;;17.27;16.07;;;27.20;26.80;;;;;;5178228;27;20428;-54
2023/08/17 11:13:54;;;;;;;17.50;16.10;;;27.30;26.20;;;;;;5075788;28;20412;-57
2023/08/17 11:16:19;;;;;;;17.40;16.00;;;27.30;26.90;;;;;;5075851;28;20896;-55
2023/08/17 11:18:49;;;;;;;17.40;16.10;;;27.20;26.90;;;;;;5115333;27;20503;-54
2023/08/17 11:21:15;;;;;;;16.90;15.70;;;27.20;26.60;;;;;;5158893;27;20266;-56
2023/08/17 11:23:42;;;;;;;18.13;16.93;;;27.10;26.40;;;;;;5158714;27;20480;-56
2023/08/17 11:26:08;;;;;;;17.43;16.27;;;27.10;26.10;;;;;;5158943;27;20469;-56
2023/08/17 11:28:38;;;;;;;16.67;15.53;;;27.00;26.70;;;;;;5158547;27;20928;-56
2023/08/17 11:31:06;;;;;;;16.80;15.67;;;27.00;27.10;;;;;;5157565;27;20461;-59
2023/08/17 11:33:33;;;;;;;15.23;14.33;;;26.90;27.30;;;;;;5158702;27;20770;-59
2023/08/17 11:36:00;;;;;;;16.23;14.97;;;26.90;27.80;;;;;;5158652;27;20921;-59
2023/08/17 11:38:30;;;;;;;16.33;15.23;;;26.90;28.00;;;;;;5158358;27;20758;-59
2023/08/17 11:40:58;;;;;;;16.97;15.97;;;26.90;27.70;;;;;;5140064;27;20509;-58
2023/08/17 11:43:24;;;;;;;16.10;15.23;;;26.80;27.40;;;;;;5117321;27;20453;-60
2023/08/17 11:45:49;;;;;;;18.77;17.37;;;26.90;26.70;;;;;;5134309;27;20905;-58
2023/08/17 11:48:16;;;;;;;17.97;16.90;;;26.90;27.00;;;;;;5133956;27;20264;-58
2023/08/17 11:50:42;;;;;;;17.60;16.50;;;26.90;27.00;;;;;;5134082;27;20604;-58
2023/08/17 11:53:08;;;;;;;18.07;16.67;;;26.90;27.20;;;;;;5133980;27;20466;-58
2023/08/17 11:55:34;;;;;;;17.17;16.20;;;26.90;27.30;;;;;;5134031;27;20407;-59
2023/08/17 11:58:01;;;;;;;17.37;16.27;;;26.90;27.30;;;;;;5133856;27;20165;-57
2023/08/17 12:00:27;;;;;;;16.37;15.33;;;26.80;27.30;;;;;;5133921;27;20218;-59
2023/08/17 12:02:54;;;;;;;16.63;15.57;;;26.90;27.20;;;;;;5134028;27;20418;-59
2023/08/17 12:05:24;;;;;;;16.40;15.40;;;26.80;27.40;;;;;;5133876;27;20195;-59
2023/08/17 12:07:52;;;;;;;16.07;15.20;;;26.80;27.30;;;;;;5133757;27;20930;-59
2023/08/17 12:10:19;;;;;;;16.90;15.80;;;26.80;27.30;;;;;;5133764;27;20561;-59
2023/08/17 12:12:47;;;;;;;16.77;15.87;;;26.70;27.70;;;;;;5133745;27;20507;-59
2023/08/17 12:15:13;;;;;;;17.37;16.23;;;26.80;28.20;;;;;;5133605;27;20929;-59
2023/08/17 12:17:47;;;;;;;19.10;17.63;;;26.80;28.40;;;;;;5133564;27;20420;-59
2023/08/17 12:20:17;;;;;;;17.93;16.50;;;26.80;28.70;;;;;;5133476;27;20444;-58
2023/08/17 12:22:43;;;;;;;18.07;16.97;;;26.80;29.20;;;;;;5133601;27;20894;-58
2023/08/17 12:25:09;;;;;;;18.30;17.00;;;26.80;29.20;;;;;;5133374;27;20490;-57
2023/08/17 12:27:35;;;;;;;19.47;18.30;;;26.80;30.00;;;;;;5134632;27;20219;-57
2023/08/17 12:30:01;;;;;;;19.10;17.60;;;26.70;30.50;;;;;;5133084;27;20480;-58